Time;durP1;ratioP1;P1;durP2;ratioP2;P2;SDS_P1;SDS_P2;PMS_P1;PMS_P2;Temp;Humidity;BMP_temperature;BMP_pressure;BME280_temperature;BME280_humidity;BME280_pressure;Samples;Min_cycle;Max_cycle;Signal;HPM_P1;HPM_P2
2023/10/19 00:00:55;;;;;;;7.45;2.05;;;;;;;21.29;61.70;97877.94;2079998;28;20123;-64
2023/10/19 00:01:58;;;;;;;4.93;1.80;;;;;;;21.29;61.77;97878.75;2075307;28;20741;-64
2023/10/19 00:03:02;;;;;;;6.40;1.95;;;;;;;21.29;61.67;97877.94;2079282;28;20158;-64
2023/10/19 00:04:07;;;;;;;5.32;1.95;;;;;;;21.29;61.88;97872.53;2079559;28;20053;-64
2023/10/19 00:05:12;;;;;;;6.22;2.13;;;;;;;21.28;61.73;97881.66;2082613;28;20049;-64
2023/10/19 00:06:13;;;;;;;3.40;2.00;;;;;;;21.28;62.09;97878.97;2080721;28;20045;-64
2023/10/19 00:07:15;;;;;;;7.13;1.65;;;;;;;21.28;61.66;97871.69;2080147;28;20069;-64
2023/10/19 00:08:19;;;;;;;9.13;2.45;;;;;;;21.30;61.88;97874.97;2081561;28;20504;-65
2023/10/19 00:09:20;;;;;;;6.53;1.90;;;;;;;21.30;61.96;97868.78;2083477;28;20110;-65
2023/10/19 00:10:22;;;;;;;4.55;1.50;;;;;;;21.29;61.69;97872.53;2084005;28;20523;-64
2023/10/19 00:11:24;;;;;;;6.53;1.70;;;;;;;21.29;61.62;97867.97;2080350;28;20060;-66
2023/10/19 00:12:25;;;;;;;5.82;2.55;;;;;;;21.30;61.87;97868.78;2084012;28;20854;-64
2023/10/19 00:13:28;;;;;;;8.63;2.63;;;;;;;21.32;61.44;97863.97;2081511;28;20052;-64
2023/10/19 00:14:32;;;;;;;4.72;2.08;;;;;;;21.31;61.53;97863.16;2082459;28;20126;-64
2023/10/19 00:15:34;;;;;;;2.67;2.17;;;;;;;21.30;61.77;97861.50;2081020;28;20523;-64
2023/10/19 00:16:35;;;;;;;3.95;2.10;;;;;;;21.31;61.63;97865.00;2080850;28;20053;-64
2023/10/19 00:17:38;;;;;;;3.92;1.92;;;;;;;21.31;61.36;97860.47;2082708;28;20056;-64
2023/10/19 00:18:42;;;;;;;4.13;1.98;;;;;;;21.32;61.40;97855.88;2081228;28;20527;-64
2023/10/19 00:19:59;;;;;;;8.57;2.10;;;;;;;21.32;61.44;97855.88;2081688;28;20053;-64
2023/10/19 00:21:10;;;;;;;7.13;2.03;;;;;;;21.32;61.59;97855.88;2081143;28;20996;-64
2023/10/19 00:22:20;;;;;;;4.40;1.95;;;;;;;21.29;61.76;97838.28;2081573;28;20076;-64
2023/10/19 00:23:28;;;;;;;10.88;1.75;;;;;;;21.28;61.67;97838.53;2079288;28;20077;-64
2023/10/19 00:24:31;;;;;;;10.63;1.85;;;;;;;21.28;61.38;97839.34;2080095;28;20052;-64
2023/10/19 00:25:35;;;;;;;3.88;1.83;;;;;;;21.29;61.59;97840.19;2083814;28;20114;-63
2023/10/19 00:26:35;;;;;;;2.78;1.83;;;;;;;21.30;61.22;97831.00;2078407;28;20467;-64
2023/10/19 00:27:36;;;;;;;5.85;1.83;;;;;;;21.32;61.38;97834.31;2082553;28;20080;-64
2023/10/19 00:28:38;;;;;;;;;;;;;;;21.20;61.50;97831.63;2081343;28;20084;-64
2023/10/19 00:29:47;;;;;;;7.30;2.40;;;;;;;21.24;61.33;97821.19;2080079;28;19929;-64
2023/10/19 00:30:50;;;;;;;3.05;1.65;;;;;;;21.26;61.27;97813.69;2081024;28;20053;-64
2023/10/19 00:31:52;;;;;;;5.18;1.50;;;;;;;21.28;61.20;97812.34;2079487;28;20064;-64
2023/10/19 00:32:54;;;;;;;4.13;1.58;;;;;;;21.29;61.19;97803.22;2081158;28;20564;-64
2023/10/19 00:33:57;;;;;;;3.45;1.77;;;;;;;21.29;61.30;97799.72;2082285;28;20456;-64
2023/10/19 00:35:04;;;;;;;6.28;1.58;;;;;;;21.28;61.30;97798.88;2081483;28;20049;-64
2023/10/19 00:36:07;;;;;;;2.53;1.40;;;;;;;21.29;61.08;97797.84;2079160;28;20049;-64
2023/10/19 00:37:10;;;;;;;4.63;2.05;;;;;;;21.28;61.04;97793.47;2080254;28;20057;-65
2023/10/19 00:38:27;;;;;;;7.13;1.92;;;;;;;21.28;60.84;97801.56;2081111;28;20075;-64
2023/10/19 00:39:40;;;;;;;4.57;2.00;;;;;;;21.26;61.17;97786.72;2083706;28;20061;-65
2023/10/19 00:40:41;;;;;;;3.83;1.17;;;;;;;21.27;61.06;97788.34;2080591;28;20118;-64
2023/10/19 00:41:47;;;;;;;3.55;2.35;;;;;;;21.27;60.99;97780.25;2077075;28;20061;-64
2023/10/19 00:42:53;;;;;;;2.85;1.58;;;;;;;21.28;60.92;97780.00;2081740;28;20052;-65
2023/10/19 00:44:02;;;;;;;3.00;1.20;;;;;;;21.28;60.96;97779.19;2082383;28;20043;-64
2023/10/19 00:45:07;;;;;;;5.53;1.95;;;;;;;21.29;60.88;97780.84;2082724;28;20065;-64
2023/10/19 00:46:11;;;;;;;4.45;2.22;;;;;;;21.27;60.87;97772.97;2082724;28;20117;-65
2023/10/19 00:47:13;;;;;;;3.17;1.35;;;;;;;21.28;61.05;97773.78;2080646;28;20061;-64
2023/10/19 00:48:17;;;;;;;4.55;1.83;;;;;;;21.29;61.06;97780.84;2077460;28;20822;-64
2023/10/19 00:49:23;;;;;;;2.40;2.05;;;;;;;21.29;61.12;97775.44;2081201;28;20122;-64
2023/10/19 00:50:27;;;;;;;5.07;1.35;;;;;;;21.27;61.20;97772.97;2081604;28;20041;-64
2023/10/19 00:51:50;;;;;;;3.50;1.60;;;;;;;21.27;61.18;97761.38;2083104;28;20079;-64
2023/10/19 00:52:51;;;;;;;3.08;1.48;;;;;;;21.25;60.75;97758.09;2079120;28;20098;-64
2023/10/19 00:53:55;;;;;;;2.85;1.52;;;;;;;21.26;61.38;97755.16;2079230;28;20114;-64
2023/10/19 00:54:58;;;;;;;3.05;1.50;;;;;;;21.27;60.89;97764.88;2080940;28;21327;-64
2023/10/19 00:56:02;;;;;;;2.33;1.58;;;;;;;21.28;61.13;97763.00;2079629;28;20153;-64
2023/10/19 00:57:06;;;;;;;3.90;1.80;;;;;;;21.29;61.08;97760.06;2084587;28;20041;-64
2023/10/19 00:58:13;;;;;;;2.72;1.40;;;;;;;21.28;60.92;97757.59;2079970;28;20046;-64
2023/10/19 00:59:20;;;;;;;5.57;1.77;;;;;;;21.27;60.82;97755.97;2083051;28;21068;-64
2023/10/19 01:00:31;;;;;;;4.32;1.60;;;;;;;21.28;61.17;97753.03;2079569;28;20511;-64
2023/10/19 01:01:40;;;;;;;5.15;1.65;;;;;;;21.27;60.84;97753.28;2081171;28;20443;-64
2023/10/19 01:02:45;;;;;;;5.32;1.30;;;;;;;21.27;61.07;97739.81;2078901;28;20042;-64
2023/10/19 01:03:52;;;;;;;2.80;1.40;;;;;;;21.28;60.90;97738.72;2080593;28;20079;-64
2023/10/19 01:04:59;;;;;;;2.53;1.50;;;;;;;21.29;60.81;97741.19;2081889;28;20099;-64
2023/10/19 01:06:00;;;;;;;7.47;1.65;;;;;;;21.27;61.01;97745.19;2084051;28;20044;-64
2023/10/19 01:07:04;;;;;;;5.85;2.00;;;;;;;21.29;60.71;97737.69;2078077;28;20077;-64
2023/10/19 01:08:22;;;;;;;7.82;2.10;;;;;;;21.29;60.86;97741.19;2082006;28;20045;-64
2023/10/19 01:09:27;;;;;;;1.92;1.35;;;;;;;21.27;60.90;97739.81;2082343;28;20068;-64
2023/10/19 01:10:31;;;;;;;4.82;1.50;;;;;;;21.27;61.10;97742.50;2077853;28;20049;-64
2023/10/19 01:11:34;;;;;;;5.85;1.63;;;;;;;21.28;60.86;97736.03;2081387;28;20118;-63
2023/10/19 01:12:38;;;;;;;9.27;2.95;;;;;;;21.30;60.87;97744.72;2080613;28;20048;-64
2023/10/19 01:13:44;;;;;;;1.77;1.30;;;;;;;21.29;60.88;97743.91;2082254;28;20059;-64
2023/10/19 01:14:45;;;;;;;3.10;1.50;;;;;;;21.30;60.85;97742.81;2083261;28;20397;-64
2023/10/19 01:15:50;;;;;;;2.42;1.42;;;;;;;21.29;60.82;97733.09;2082684;28;20056;-64
2023/10/19 01:16:51;;;;;;;2.03;1.42;;;;;;;21.28;60.89;97734.16;2081529;28;20052;-64
2023/10/19 01:17:56;;;;;;;2.88;1.35;;;;;;;21.28;60.91;97731.44;2082088;28;20056;-64
2023/10/19 01:18:58;;;;;;;4.88;1.55;;;;;;;21.29;61.03;97735.00;2082085;28;20045;-65
2023/10/19 01:19:59;;;;;;;5.32;1.95;;;;;;;21.29;60.85;97737.69;2081841;28;20049;-65
2023/10/19 01:21:04;;;;;;;6.85;1.98;;;;;;;21.30;60.90;97729.34;2082346;28;20060;-64
2023/10/19 01:22:05;;;;;;;5.65;1.38;;;;;;;21.29;60.87;97718.81;2082103;28;20054;-64
2023/10/19 01:23:20;;;;;;;5.45;2.00;;;;;;;21.32;60.87;97726.41;2083305;28;20061;-65
2023/10/19 01:24:33;;;;;;;3.30;1.10;;;;;;;21.28;60.94;97726.06;2080994;28;20458;-65
2023/10/19 01:25:46;;;;;;;2.90;1.48;;;;;;;21.27;60.98;97731.72;2079081;28;20044;-64
2023/10/19 01:26:47;;;;;;;2.13;1.73;;;;;;;21.29;60.97;97730.41;2081014;28;20041;-64
2023/10/19 01:27:49;;;;;;;5.25;1.52;;;;;;;21.30;61.06;97729.34;2084082;28;20156;-64
2023/10/19 01:28:52;;;;;;;2.90;1.38;;;;;;;21.31;61.04;97741.78;2081277;28;20053;-64
2023/10/19 01:29:53;;;;;;;5.40;1.48;;;;;;;21.30;61.09;97744.72;2079946;28;20053;-64
2023/10/19 01:30:54;;;;;;;2.55;1.70;;;;;;;21.30;60.92;97737.44;2082775;28;20045;-64
2023/10/19 01:32:05;;;;;;;3.13;1.48;;;;;;;21.29;60.96;97743.91;2079788;28;20055;-64
2023/10/19 01:33:12;;;;;;;;;;;;;;;21.19;61.45;97735.59;2081929;28;20482;-64
2023/10/19 01:34:14;;;;;;;4.70;1.30;;;;;;;21.20;61.15;97731.84;2080632;28;20572;-65
2023/10/19 01:35:15;;;;;;;1.77;1.20;;;;;;;21.25;60.95;97731.13;2081744;28;20060;-64
2023/10/19 01:36:17;;;;;;;;;;;;;;;21.16;61.11;97720.72;2081913;28;20056;-64
2023/10/19 01:37:20;;;;;;;3.05;1.50;;;;;;;21.21;61.24;97730.81;2081301;28;19936;-64
2023/10/19 01:38:22;;;;;;;5.38;1.20;;;;;;;21.25;61.14;97731.13;2081276;28;20411;-64
2023/10/19 01:39:23;;;;;;;2.33;1.35;;;;;;;21.28;60.83;97722.53;2079563;28;20041;-64
2023/10/19 01:40:24;;;;;;;2.63;1.50;;;;;;;21.28;61.04;97720.66;2082314;28;20554;-65
2023/10/19 01:41:26;;;;;;;4.18;1.45;;;;;;;21.31;60.91;97727.44;2081079;28;20049;-64
2023/10/19 01:42:27;;;;;;;2.47;1.30;;;;;;;21.30;60.67;97720.44;2082415;28;20152;-64
2023/10/19 01:43:30;;;;;;;6.40;1.70;;;;;;;21.28;60.95;97717.97;2081038;28;20563;-65
2023/10/19 01:44:31;;;;;;;2.63;1.70;;;;;;;21.28;60.86;97726.06;2081379;28;20098;-64
2023/10/19 01:45:33;;;;;;;1.92;1.20;;;;;;;21.30;60.46;97720.44;2079314;28;20555;-63
2023/10/19 01:46:35;;;;;;;2.35;1.63;;;;;;;21.30;60.84;97723.13;2080117;28;20049;-64
2023/10/19 01:47:36;;;;;;;4.68;1.60;;;;;;;21.29;60.45;97714.22;2080972;28;20054;-64
2023/10/19 01:48:40;;;;;;;4.53;1.48;;;;;;;21.28;60.78;97709.88;2080145;28;20054;-64
2023/10/19 01:49:45;;;;;;;1.40;1.27;;;;;;;21.30;60.68;97712.34;2079475;28;20137;-64
2023/10/19 01:50:47;;;;;;;3.42;1.40;;;;;;;21.29;60.69;97708.03;2080692;28;20062;-64
2023/10/19 01:51:49;;;;;;;2.65;2.05;;;;;;;21.29;60.55;97711.53;2081461;28;20085;-64
2023/10/19 01:52:51;;;;;;;2.33;1.27;;;;;;;21.28;60.65;97704.47;2079392;28;20068;-65
2023/10/19 01:53:55;;;;;;;2.65;1.42;;;;;;;21.29;60.66;97694.53;2081002;28;20579;-64
2023/10/19 01:55:02;;;;;;;3.17;1.60;;;;;;;21.29;60.65;97703.44;2080984;28;20167;-64
2023/10/19 01:56:05;;;;;;;6.47;1.02;;;;;;;21.29;60.64;97692.66;2082113;28;20161;-64
2023/10/19 01:57:08;;;;;;;3.30;1.48;;;;;;;21.29;60.60;97697.22;2080096;28;20052;-65
2023/10/19 01:58:10;;;;;;;4.18;1.55;;;;;;;21.31;60.42;97697.78;2081735;28;20133;-64
2023/10/19 01:59:13;;;;;;;4.90;1.58;;;;;;;21.29;60.43;97689.94;2079225;28;20050;-64
2023/10/19 02:00:22;;;;;;;4.75;1.85;;;;;;;21.31;60.48;97689.69;2083826;28;20059;-64
2023/10/19 02:01:28;;;;;;;4.72;1.17;;;;;;;21.31;60.29;97687.00;2082777;28;20041;-64
2023/10/19 02:02:32;;;;;;;5.03;1.85;;;;;;;21.30;60.67;97685.38;2077604;28;20119;-65
2023/10/19 02:03:35;;;;;;;4.93;1.20;;;;;;;21.29;60.65;97686.44;2080687;28;20049;-64
2023/10/19 02:04:35;;;;;;;2.33;1.88;;;;;;;21.30;60.52;97688.88;2077607;28;20172;-64
2023/10/19 02:05:41;;;;;;;3.03;1.38;;;;;;;21.31;60.68;97693.22;2082968;28;20539;-64
2023/10/19 02:06:42;;;;;;;2.40;0.90;;;;;;;21.29;60.54;97687.25;2079463;28;20049;-64
2023/10/19 02:07:43;;;;;;;4.13;1.60;;;;;;;21.30;60.34;97685.38;2082277;28;20196;-65
2023/10/19 02:08:48;;;;;;;4.05;1.25;;;;;;;21.30;60.68;97679.97;2075465;28;20064;-64
2023/10/19 02:09:51;;;;;;;3.55;1.52;;;;;;;21.32;60.33;97675.16;2081145;28;20120;-64
2023/10/19 02:10:53;;;;;;;3.67;1.50;;;;;;;21.31;60.37;97673.50;2077780;28;20065;-64
2023/10/19 02:11:55;;;;;;;1.55;1.00;;;;;;;21.31;60.44;97677.06;2081166;28;20049;-64
2023/10/19 02:12:57;;;;;;;1.67;1.25;;;;;;;21.30;60.32;97670.00;2080074;28;20522;-64
2023/10/19 02:14:00;;;;;;;2.78;1.08;;;;;;;21.30;60.55;97671.88;2081358;28;20134;-64
2023/10/19 02:15:01;;;;;;;1.90;1.50;;;;;;;21.32;60.34;97664.38;2078613;28;20073;-64
2023/10/19 02:16:03;;;;;;;3.40;1.52;;;;;;;21.32;60.37;97653.59;2082451;28;20672;-64
2023/10/19 02:17:05;;;;;;;3.05;1.63;;;;;;;21.31;60.46;97657.31;2080588;28;20045;-65
2023/10/19 02:18:06;;;;;;;4.63;2.83;;;;;;;21.30;60.27;97653.81;2081483;28;20510;-64
2023/10/19 02:19:07;;;;;;;1.80;1.27;;;;;;;21.31;60.55;97651.94;2081713;28;20053;-64
2023/10/19 02:20:12;;;;;;;4.45;1.50;;;;;;;21.33;60.24;97641.72;2083847;28;20454;-64
2023/10/19 02:21:14;;;;;;;2.97;1.33;;;;;;;21.31;60.39;97633.06;2080722;28;20076;-64
2023/10/19 02:22:16;;;;;;;4.85;1.50;;;;;;;21.30;60.59;97626.84;2082793;28;20781;-65
2023/10/19 02:23:17;;;;;;;4.13;1.95;;;;;;;21.28;60.26;97618.19;2080072;28;20051;-65
2023/10/19 02:24:20;;;;;;;3.67;1.58;;;;;;;21.29;60.54;97621.72;2081393;28;20053;-64
2023/10/19 02:25:24;;;;;;;17.33;1.33;;;;;;;21.29;60.32;97614.44;2081015;28;20120;-64
2023/10/19 02:26:27;;;;;;;2.33;1.17;;;;;;;21.30;60.40;97617.94;2078991;28;20145;-64
2023/10/19 02:27:28;;;;;;;2.50;1.30;;;;;;;21.30;60.31;97617.94;2080813;28;20063;-64
2023/10/19 02:28:32;;;;;;;4.53;1.05;;;;;;;21.30;60.28;97610.66;2078869;28;20585;-64
2023/10/19 02:29:36;;;;;;;1.20;0.90;;;;;;;21.31;60.08;97617.72;2080903;28;20140;-64
2023/10/19 02:30:37;;;;;;;2.08;0.98;;;;;;;21.31;60.30;97619.56;2081049;28;20053;-64
2023/10/19 02:31:40;;;;;;;6.40;2.08;;;;;;;21.33;60.29;97603.97;2079705;28;20111;-64
2023/10/19 02:32:42;;;;;;;3.08;1.33;;;;;;;21.31;60.25;97611.47;2078657;28;20045;-64
2023/10/19 02:33:46;;;;;;;1.88;1.23;;;;;;;21.31;60.35;97611.47;2081934;28;20098;-64
2023/10/19 02:34:48;;;;;;;4.22;1.23;;;;;;;21.30;60.40;97604.47;2078290;28;20076;-64
2023/10/19 02:35:48;;;;;;;2.42;1.15;;;;;;;21.32;60.32;97608.53;2078730;28;20065;-64
2023/10/19 02:36:49;;;;;;;2.55;1.40;;;;;;;21.32;60.25;97597.75;2083261;28;20164;-65
2023/10/19 02:37:51;;;;;;;2.42;1.30;;;;;;;21.32;60.10;97594.25;2078845;28;20183;-65
2023/10/19 02:38:52;;;;;;;6.20;1.17;;;;;;;21.32;60.28;97584.28;2080378;28;20493;-64
2023/10/19 02:39:53;;;;;;;3.95;1.17;;;;;;;21.32;60.60;97586.16;2081971;28;20057;-64
2023/10/19 02:40:56;;;;;;;1.92;1.40;;;;;;;21.32;60.25;97580.75;2079577;28;20467;-64
2023/10/19 02:42:01;;;;;;;3.13;0.93;;;;;;;21.31;60.43;97579.13;2079801;28;20052;-64
2023/10/19 02:43:03;;;;;;;3.17;1.15;;;;;;;21.31;60.41;97579.13;2077443;28;20049;-64
2023/10/19 02:44:14;;;;;;;5.60;1.33;;;;;;;21.32;60.34;97575.38;2081957;28;20051;-64
2023/10/19 02:45:15;;;;;;;3.45;1.58;;;;;;;21.31;60.35;97571.03;2080310;28;20597;-65
2023/10/19 02:46:17;;;;;;;4.20;1.80;;;;;;;21.31;60.19;97573.72;2079375;28;20065;-64
2023/10/19 02:47:18;;;;;;;4.07;1.20;;;;;;;21.32;60.42;97570.78;2081578;28;20053;-64
2023/10/19 02:48:20;;;;;;;6.47;1.60;;;;;;;21.34;60.16;97575.91;2080942;28;20049;-64
2023/10/19 02:49:22;;;;;;;5.30;1.73;;;;;;;21.32;60.24;97578.06;2081088;28;20052;-64
2023/10/19 02:50:26;;;;;;;2.78;1.48;;;;;;;21.33;60.04;97577.81;2082088;28;20044;-64
2023/10/19 02:51:28;;;;;;;1.45;0.98;;;;;;;21.32;60.33;97572.69;2082433;28;20045;-64
2023/10/19 02:52:28;;;;;;;1.58;1.20;;;;;;;21.32;60.13;97568.09;2080778;28;20156;-65
2023/10/19 02:53:29;;;;;;;3.47;1.45;;;;;;;21.32;60.41;97564.59;2080569;28;20199;-64
2023/10/19 02:54:32;;;;;;;;;;;;;;;21.23;60.29;97571.44;2078455;28;20049;-64
2023/10/19 02:55:33;;;;;;;1.95;0.93;;;;;;;21.26;60.57;97576.38;2079360;28;19920;-64
2023/10/19 02:56:36;;;;;;;2.85;1.45;;;;;;;21.27;60.42;97573.41;2078422;28;20464;-64
2023/10/19 02:57:38;;;;;;;2.88;2.42;;;;;;;21.31;60.20;97581.81;2075844;28;20536;-64
2023/10/19 02:58:42;;;;;;;6.57;1.42;;;;;;;21.31;60.46;97579.97;2080847;28;21631;-65
2023/10/19 02:59:46;;;;;;;5.78;1.38;;;;;;;21.31;60.17;97581.81;2082180;28;20056;-64
2023/10/19 03:00:47;;;;;;;3.30;1.55;;;;;;;21.33;60.29;97585.09;2079228;28;20049;-65
2023/10/19 03:01:50;;;;;;;5.00;1.50;;;;;;;21.33;60.48;97577.00;2082145;28;20057;-64
2023/10/19 03:02:52;;;;;;;9.32;1.48;;;;;;;21.32;60.08;97575.38;2079938;28;20049;-64
2023/10/19 03:03:54;;;;;;;3.20;1.75;;;;;;;21.33;60.15;97579.69;2080918;28;20059;-64
2023/10/19 03:04:56;;;;;;;6.13;2.55;;;;;;;21.32;60.16;97583.47;2082970;28;20980;-64
2023/10/19 03:05:59;;;;;;;4.43;1.50;;;;;;;21.30;60.32;97575.59;2077635;28;20048;-64
2023/10/19 03:07:00;;;;;;;7.25;1.52;;;;;;;21.30;60.27;97566.69;2078455;28;20462;-64
2023/10/19 03:08:05;;;;;;;4.35;1.63;;;;;;;21.31;60.10;97568.31;2082362;28;20079;-64
2023/10/19 03:09:13;;;;;;;8.07;1.25;;;;;;;21.31;60.15;97557.53;2078488;28;20148;-65
2023/10/19 03:10:23;;;;;;;3.75;1.25;;;;;;;21.30;60.19;97564.81;2078557;28;20095;-64
2023/10/19 03:11:25;;;;;;;3.60;1.38;;;;;;;21.28;60.06;97566.13;2080966;28;20468;-65
2023/10/19 03:12:28;;;;;;;2.03;1.33;;;;;;;21.30;60.21;97559.41;2083123;28;20052;-64
2023/10/19 03:13:29;;;;;;;3.58;1.40;;;;;;;21.31;60.27;97573.72;2080660;28;20057;-64
2023/10/19 03:14:31;;;;;;;3.80;1.38;;;;;;;21.31;60.18;97569.16;2077817;28;20059;-64
2023/10/19 03:15:33;;;;;;;3.88;1.70;;;;;;;21.31;60.12;97565.63;2081622;28;20556;-64
2023/10/19 03:16:34;;;;;;;4.25;2.75;;;;;;;21.29;60.10;97571.28;2079946;28;20098;-64
2023/10/19 03:17:36;;;;;;;3.80;1.33;;;;;;;21.31;60.11;97579.97;2083673;28;20503;-64
2023/10/19 03:18:38;;;;;;;1.90;1.30;;;;;;;21.31;60.05;97584.50;2081625;28;20446;-65
2023/10/19 03:19:39;;;;;;;4.13;2.08;;;;;;;21.32;60.21;97576.19;2077815;28;20091;-65
2023/10/19 03:20:41;;;;;;;5.00;1.65;;;;;;;21.33;60.38;97574.28;2080223;28;20049;-65
2023/10/19 03:21:43;;;;;;;6.10;1.48;;;;;;;21.32;60.16;97572.69;2081351;28;20072;-65
2023/10/19 03:22:46;;;;;;;5.38;1.48;;;;;;;21.32;60.10;97573.47;2079758;28;20049;-65
2023/10/19 03:23:47;;;;;;;3.58;1.27;;;;;;;21.31;60.23;97582.66;2081099;28;20044;-65
2023/10/19 03:24:58;;;;;;;3.38;1.67;;;;;;;21.32;60.16;97572.69;2082362;28;20490;-65
2023/10/19 03:27:17;;;;;;;2.63;1.35;;;;;;;21.29;60.13;97570.47;2062465;28;20117;-65
2023/10/19 03:28:20;;;;;;;4.13;1.00;;;;;;;21.31;60.31;97563.78;2078572;28;20088;-65
2023/10/19 03:29:25;;;;;;;1.88;1.23;;;;;;;21.32;60.28;97556.50;2078084;28;20057;-65
2023/10/19 03:30:27;;;;;;;2.92;1.17;;;;;;;21.32;60.26;97565.41;2078344;28;20076;-65
2023/10/19 03:31:28;;;;;;;5.38;1.77;;;;;;;21.31;60.31;97566.47;2081230;28;20061;-65
2023/10/19 03:32:32;;;;;;;6.53;1.48;;;;;;;21.32;60.19;97569.97;2080163;28;20416;-65
2023/10/19 03:33:36;;;;;;;2.25;1.25;;;;;;;21.33;60.07;97582.38;2079808;28;20053;-65
2023/10/19 03:34:38;;;;;;;3.15;1.55;;;;;;;21.32;60.03;97578.06;2082299;28;20143;-65
2023/10/19 03:35:41;;;;;;;4.85;1.85;;;;;;;21.31;60.52;97577.25;2080840;28;20053;-65
2023/10/19 03:36:43;;;;;;;2.78;1.70;;;;;;;21.31;60.25;97589.91;2082270;28;20053;-65
2023/10/19 03:37:48;;;;;;;6.65;1.50;;;;;;;21.33;60.41;97588.59;2079946;28;20053;-65
2023/10/19 03:38:51;;;;;;;3.05;1.80;;;;;;;21.30;60.37;97581.00;2080856;28;20052;-65
2023/10/19 03:39:52;;;;;;;2.67;1.63;;;;;;;21.33;60.17;97577.81;2080544;28;20049;-65
2023/10/19 03:40:59;;;;;;;2.83;1.33;;;;;;;21.32;60.34;97576.19;2078983;28;21268;-65
2023/10/19 03:42:00;;;;;;;4.20;1.30;;;;;;;21.30;60.14;97572.09;2081766;28;20060;-65
2023/10/19 03:43:13;;;;;;;5.25;1.70;;;;;;;21.32;60.33;97586.16;2082013;28;20059;-65
2023/10/19 03:44:19;;;;;;;3.60;1.65;;;;;;;21.31;60.14;97579.13;2080461;28;20049;-65
2023/10/19 03:45:23;;;;;;;4.63;1.63;;;;;;;21.31;60.39;97592.59;2080552;28;20045;-65
2023/10/19 03:46:28;;;;;;;3.25;1.27;;;;;;;21.29;60.19;97594.75;2082078;28;20062;-65
2023/10/19 03:47:34;;;;;;;3.47;1.35;;;;;;;21.31;60.21;97598.84;2077488;28;20052;-65
2023/10/19 03:48:37;;;;;;;6.57;1.33;;;;;;;21.31;60.28;97584.50;2080813;28;20068;-65
2023/10/19 03:49:40;;;;;;;3.28;0.75;;;;;;;21.31;60.20;97573.72;2082195;28;20055;-65
2023/10/19 03:50:42;;;;;;;2.75;1.27;;;;;;;21.31;60.06;97576.41;2081510;28;20053;-64
2023/10/19 03:51:58;;;;;;;4.90;1.88;;;;;;;21.31;60.31;97569.16;2083874;28;20041;-65
2023/10/19 03:52:59;;;;;;;7.53;1.48;;;;;;;21.29;60.24;97568.59;2082241;28;20132;-65
2023/10/19 03:54:03;;;;;;;4.25;1.13;;;;;;;21.30;59.94;97562.13;2078612;28;20420;-65
2023/10/19 03:55:05;;;;;;;2.65;1.52;;;;;;;21.32;60.22;97567.28;2080356;28;20053;-65
2023/10/19 03:56:10;;;;;;;6.97;1.67;;;;;;;21.32;60.37;97565.41;2080521;28;21285;-65
2023/10/19 03:57:19;;;;;;;7.10;1.50;;;;;;;21.33;60.33;97558.13;2080550;28;20105;-65
2023/10/19 03:58:20;;;;;;;2.38;1.30;;;;;;;21.31;60.19;97568.31;2080775;28;20045;-65
2023/10/19 03:59:29;;;;;;;4.13;1.33;;;;;;;21.32;60.22;97569.97;2078864;28;20048;-65
2023/10/19 04:00:33;;;;;;;1.30;0.98;;;;;;;21.31;60.29;97568.31;2078427;28;20061;-65
2023/10/19 04:01:34;;;;;;;4.13;1.42;;;;;;;21.31;60.28;97557.53;2078399;28;20538;-64
2023/10/19 04:02:38;;;;;;;0.77;0.77;;;;;;;21.30;60.23;97555.91;2080786;28;20045;-65
2023/10/19 04:03:40;;;;;;;4.40;1.52;;;;;;;21.31;60.13;97552.13;2078644;28;20057;-65
2023/10/19 04:04:43;;;;;;;4.50;1.10;;;;;;;21.31;60.14;97563.78;2080717;28;20052;-65
2023/10/19 04:05:46;;;;;;;3.75;1.13;;;;;;;21.30;60.10;97548.63;2077310;28;20053;-65
2023/10/19 04:06:47;;;;;;;3.92;1.15;;;;;;;21.30;60.52;97545.13;2077894;28;20474;-65
2023/10/19 04:07:54;;;;;;;5.93;1.73;;;;;;;21.31;60.08;97549.44;2080954;28;20065;-65
2023/10/19 04:08:54;;;;;;;7.15;1.95;;;;;;;21.31;60.18;97547.59;2079338;28;20060;-65
2023/10/19 04:10:29;;;;;;;1.77;1.65;;;;;;;21.31;60.26;97547.59;2084066;28;20041;-65
2023/10/19 04:11:32;;;;;;;4.18;1.38;;;;;;;21.26;60.11;97544.81;2083680;28;20432;-65
2023/10/19 04:12:36;;;;;;;3.20;1.40;;;;;;;21.30;60.42;97550.53;2078235;28;20646;-64
2023/10/19 04:13:37;;;;;;;2.45;1.08;;;;;;;21.31;60.35;97555.69;2080759;28;20045;-64
2023/10/19 04:14:41;;;;;;;4.43;1.35;;;;;;;21.31;60.35;97554.84;2084196;28;20068;-65
2023/10/19 04:15:42;;;;;;;4.38;1.10;;;;;;;21.32;60.01;97545.69;2081556;28;20060;-64
2023/10/19 04:16:44;;;;;;;2.58;1.10;;;;;;;21.34;60.14;97541.69;2081602;28;20053;-65
2023/10/19 04:17:47;;;;;;;9.65;3.53;;;;;;;21.35;60.11;97531.72;2078813;28;20049;-65
2023/10/19 04:18:49;;;;;;;6.25;1.58;;;;;;;21.39;60.02;97527.47;2079086;28;20539;-65
2023/10/19 04:19:51;;;;;;;5.93;1.67;;;;;;;21.42;60.11;97532.38;2079133;28;20563;-65
2023/10/19 04:20:55;;;;;;;7.65;1.60;;;;;;;21.44;59.92;97537.53;2081716;28;20057;-65
2023/10/19 04:21:57;;;;;;;12.85;1.70;;;;;;;21.48;59.73;97533.25;2081537;28;20053;-65
2023/10/19 04:22:58;;;;;;;6.07;1.95;;;;;;;21.47;60.15;97537.03;2077238;28;20786;-65
2023/10/19 04:24:00;;;;;;;14.35;2.20;;;;;;;21.44;60.01;97541.03;2078528;28;20060;-65
2023/10/19 04:25:01;;;;;;;6.65;1.70;;;;;;;21.39;60.14;97546.34;2076429;28;20049;-65
2023/10/19 04:26:10;;;;;;;6.88;1.77;;;;;;;21.38;60.17;97561.72;2074642;28;20065;-65
2023/10/19 04:27:12;;;;;;;13.95;1.83;;;;;;;21.36;59.92;97563.00;2078829;28;20049;-65
2023/10/19 04:28:14;;;;;;;23.33;2.25;;;;;;;21.35;60.07;97561.38;2078044;28;20132;-65
2023/10/19 04:29:19;;;;;;;6.90;1.80;;;;;;;21.33;59.99;97558.94;2078415;28;20050;-65
2023/10/19 04:30:22;;;;;;;3.97;1.90;;;;;;;21.32;60.19;97554.59;2081274;28;20045;-65
2023/10/19 04:31:23;;;;;;;5.85;1.88;;;;;;;21.30;60.03;97564.81;2079584;28;20061;-65
2023/10/19 04:32:25;;;;;;;16.25;2.10;;;;;;;21.32;59.97;97559.19;2081456;28;20608;-65
2023/10/19 04:33:28;;;;;;;10.68;2.17;;;;;;;21.33;60.04;97568.91;2081393;28;20838;-65
2023/10/19 04:34:30;;;;;;;6.85;1.70;;;;;;;21.33;59.91;97571.59;2081494;28;20049;-64
2023/10/19 04:35:34;;;;;;;8.80;1.75;;;;;;;21.43;59.32;97577.19;2082901;28;20126;-67
2023/10/19 04:36:35;;;;;;;5.95;1.85;;;;;;;21.49;59.61;97569.97;2080265;28;20067;-66
2023/10/19 04:37:36;;;;;;;26.20;2.90;;;;;;;21.53;59.89;97576.50;2078951;28;20056;-66
2023/10/19 04:38:39;;;;;;;24.33;3.10;;;;;;;21.50;59.61;97574.31;2079288;28;20103;-64
2023/10/19 04:39:40;;;;;;;9.73;2.75;;;;;;;21.50;60.04;97575.13;2080812;28;20079;-65
2023/10/19 04:40:42;;;;;;;12.15;2.35;;;;;;;21.46;60.10;97576.69;2074534;28;20044;-66
2023/10/19 04:41:44;;;;;;;11.18;2.30;;;;;;;21.42;60.04;97576.38;2077166;28;20045;-66
2023/10/19 04:42:46;;;;;;;11.52;2.40;;;;;;;21.39;60.00;97566.06;2078191;28;20045;-65
2023/10/19 04:43:50;;;;;;;20.25;2.63;;;;;;;21.38;59.90;97563.63;2079463;28;20045;-65
2023/10/19 04:44:51;;;;;;;9.50;2.42;;;;;;;21.35;59.92;97559.50;2085128;28;20127;-65
2023/10/19 04:45:54;;;;;;;8.13;1.70;;;;;;;21.34;60.18;97557.03;2082651;28;20065;-65
2023/10/19 04:46:56;;;;;;;15.32;2.40;;;;;;;21.35;60.10;97564.09;2078942;28;20085;-65
2023/10/19 04:47:57;;;;;;;13.30;2.38;;;;;;;21.32;60.18;97556.50;2076654;28;20053;-65
2023/10/19 04:48:59;;;;;;;16.50;2.47;;;;;;;21.31;59.89;97547.59;2078969;28;20111;-65
2023/10/19 04:50:00;;;;;;;6.32;2.15;;;;;;;21.29;59.86;97547.00;2079564;28;20098;-65
2023/10/19 04:51:01;;;;;;;11.82;2.00;;;;;;;21.29;60.08;97533.53;2079215;28;20463;-65
2023/10/19 04:52:03;;;;;;;7.25;1.60;;;;;;;21.28;59.88;97514.88;2081723;28;20045;-65
2023/10/19 04:53:04;;;;;;;13.77;2.78;;;;;;;21.27;59.68;97514.06;2082091;28;20048;-65
2023/10/19 04:54:08;;;;;;;9.93;3.13;;;;;;;21.29;59.63;97516.53;2078533;28;20782;-64
2023/10/19 04:55:09;;;;;;;4.97;2.88;;;;;;;21.28;59.61;97507.59;2080028;28;20084;-64
2023/10/19 04:56:12;;;;;;;6.80;2.55;;;;;;;21.27;59.44;97508.69;2078909;28;20110;-65
2023/10/19 04:57:13;;;;;;;10.80;3.50;;;;;;;21.28;59.80;97514.88;2071036;28;20060;-65
2023/10/19 04:58:15;;;;;;;9.38;1.50;;;;;;;21.26;59.49;97509.75;2080367;28;20048;-65
2023/10/19 04:59:16;;;;;;;5.35;2.28;;;;;;;21.27;59.55;97513.25;2074880;28;20552;-65
2023/10/19 05:00:20;;;;;;;3.92;1.73;;;;;;;21.27;59.38;97519.47;2075949;28;20053;-65
2023/10/19 05:01:22;;;;;;;4.38;1.70;;;;;;;21.26;59.29;97517.84;2078901;28;20547;-65